createdAt,value
2023-01-31T00:00:16.651Z,91.5
2023-01-31T00:01:17.114Z,91.5
2023-01-31T00:02:16.853Z,91.6
2023-01-31T00:03:17.461Z,91.6
2023-01-31T00:04:16.994Z,91.6
2023-01-31T00:05:16.726Z,91.7
2023-01-31T00:06:17.274Z,91.7
2023-01-31T00:07:16.749Z,91.7
2023-01-31T00:08:17.242Z,91.8
2023-01-31T00:09:16.779Z,91.9
2023-01-31T00:10:17.321Z,91.9
2023-01-31T00:11:16.831Z,91.9
2023-01-31T00:12:16.949Z,91.8
2023-01-31T00:13:17.456Z,91.9
2023-01-31T00:14:16.960Z,91.9
2023-01-31T00:15:18.198Z,91.8
2023-01-31T00:16:16.881Z,91.9
2023-01-31T00:17:17.389Z,91.9
2023-01-31T00:18:16.888Z,91.9
2023-01-31T00:19:17.407Z,91.9
2023-01-31T00:20:16.921Z,92.0
2023-01-31T00:21:17.405Z,92.0
2023-01-31T00:22:17.071Z,92.0
2023-01-31T00:23:16.584Z,92.1
2023-01-31T00:24:17.146Z,92.1
2023-01-31T00:25:16.744Z,92.2
2023-01-31T00:26:17.330Z,92.2
2023-01-31T00:27:16.826Z,92.2
2023-01-31T00:28:17.350Z,92.3
2023-01-31T00:29:16.842Z,92.2
2023-01-31T00:30:17.507Z,92.2
2023-01-31T00:31:17.321Z,92.2
2023-01-31T00:32:16.882Z,92.2
2023-01-31T00:33:17.400Z,92.3
2023-01-31T00:34:16.908Z,92.3
2023-01-31T00:35:18.108Z,92.2
2023-01-31T00:36:16.812Z,92.3
2023-01-31T00:37:17.281Z,92.4
2023-01-31T00:38:16.768Z,92.3
2023-01-31T00:39:17.259Z,92.4
2023-01-31T00:40:16.757Z,92.5
2023-01-31T00:41:17.257Z,92.5
2023-01-31T00:42:16.714Z,92.6
2023-01-31T00:43:17.224Z,92.5
2023-01-31T00:44:16.759Z,92.5
2023-01-31T00:45:17.446Z,92.5
2023-01-31T00:46:17.222Z,92.5
2023-01-31T00:47:16.738Z,92.6
2023-01-31T00:48:17.277Z,92.7
2023-01-31T00:49:16.777Z,92.6
2023-01-31T00:50:17.284Z,92.6
2023-01-31T00:51:16.790Z,92.7
2023-01-31T00:52:17.198Z,92.8
2023-01-31T00:53:16.708Z,92.7
2023-01-31T00:54:17.188Z,92.8
2023-01-31T00:55:16.711Z,92.8
2023-01-31T00:56:17.223Z,92.8
2023-01-31T00:57:16.711Z,92.7
2023-01-31T00:58:17.182Z,92.8
2023-01-31T00:59:16.683Z,92.8
2023-01-31T01:00:17.259Z,92.7
2023-01-31T01:01:16.774Z,92.7
2023-01-31T01:02:17.308Z,92.7
2023-01-31T01:03:16.851Z,92.7
2023-01-31T01:04:17.380Z,92.7
2023-01-31T01:05:16.922Z,92.7
2023-01-31T01:06:17.461Z,92.6
2023-01-31T01:07:16.974Z,92.7
2023-01-31T01:08:16.460Z,92.6
2023-01-31T01:09:16.954Z,92.6
2023-01-31T01:10:17.475Z,92.6
2023-01-31T01:11:16.990Z,92.6
2023-01-31T01:12:17.189Z,92.6
2023-01-31T01:13:16.699Z,92.6
2023-01-31T01:14:17.206Z,92.6
2023-01-31T01:15:16.923Z,92.7
2023-01-31T01:16:17.538Z,92.7
2023-01-31T01:17:17.050Z,92.7
2023-01-31T01:18:16.539Z,92.7
2023-01-31T01:19:17.022Z,92.7
2023-01-31T01:20:16.525Z,92.7
2023-01-31T01:21:17.053Z,92.7
2023-01-31T01:22:17.312Z,92.7
2023-01-31T01:23:16.788Z,92.7
2023-01-31T01:24:17.276Z,92.7
2023-01-31T01:25:16.805Z,92.7
2023-01-31T01:26:17.458Z,92.7
2023-01-31T01:27:16.970Z,92.7
2023-01-31T01:28:16.505Z,92.7
2023-01-31T01:29:17.013Z,92.7
2023-01-31T01:30:16.517Z,92.8
2023-01-31T01:31:17.397Z,92.8
2023-01-31T01:32:16.980Z,92.9
2023-01-31T01:33:16.475Z,92.9
2023-01-31T01:34:17.023Z,93.0
2023-01-31T01:35:16.538Z,93.1
2023-01-31T01:36:17.018Z,93.1
2023-01-31T01:37:16.486Z,93.1
2023-01-31T01:38:17.006Z,93.2
2023-01-31T01:39:16.735Z,93.3
2023-01-31T01:40:17.451Z,93.3
2023-01-31T01:41:16.973Z,93.4
2023-01-31T01:42:16.923Z,93.4
2023-01-31T01:43:17.407Z,93.5
2023-01-31T01:44:16.905Z,93.5
2023-01-31T01:45:21.423Z,93.5
2023-01-31T01:46:17.153Z,93.6
2023-01-31T01:47:16.698Z,93.5
2023-01-31T01:48:17.672Z,93.5
2023-01-31T01:49:17.207Z,93.7
2023-01-31T01:50:16.734Z,93.6
2023-01-31T01:51:17.252Z,93.6
2023-01-31T01:52:16.735Z,93.7
2023-01-31T01:53:17.244Z,93.7
2023-01-31T01:54:16.772Z,93.7
2023-01-31T01:55:17.642Z,93.8
2023-01-31T01:56:17.266Z,93.8
2023-01-31T01:57:16.753Z,93.8
2023-01-31T01:58:17.252Z,93.9
2023-01-31T01:59:16.759Z,93.9
2023-01-31T02:00:17.241Z,94.1
2023-01-31T02:01:17.092Z,94.2
2023-01-31T02:02:17.247Z,94.3
2023-01-31T02:03:16.840Z,94.3
2023-01-31T02:04:17.329Z,94.3
2023-01-31T02:05:16.987Z,94.3
2023-01-31T02:06:16.556Z,94.4
2023-01-31T02:07:17.040Z,94.4
2023-01-31T02:08:16.505Z,94.4
2023-01-31T02:09:17.014Z,94.5
2023-01-31T02:10:16.545Z,94.6
2023-01-31T02:11:17.012Z,94.6
2023-01-31T02:12:16.863Z,94.6
2023-01-31T02:13:17.341Z,94.5
2023-01-31T02:14:16.823Z,94.7
2023-01-31T02:15:17.511Z,94.6
2023-01-31T02:16:17.160Z,94.7
2023-01-31T02:17:16.663Z,94.9
2023-01-31T02:18:17.178Z,95.0
2023-01-31T02:19:16.663Z,95.0
2023-01-31T02:20:17.175Z,94.9
2023-01-31T02:21:16.653Z,94.9
2023-01-31T02:22:17.029Z,94.7
2023-01-31T02:23:16.542Z,94.7
2023-01-31T02:24:17.064Z,94.8
2023-01-31T02:25:16.574Z,94.8
2023-01-31T02:26:17.097Z,94.8
2023-01-31T02:27:16.625Z,94.8
2023-01-31T02:28:17.125Z,94.8
2023-01-31T02:29:16.689Z,94.8
2023-01-31T02:30:17.221Z,94.8
2023-01-31T02:31:16.798Z,94.9
2023-01-31T02:32:17.440Z,94.8
2023-01-31T02:33:16.931Z,94.8
2023-01-31T02:34:17.437Z,94.9
2023-01-31T02:35:16.910Z,94.9
2023-01-31T02:36:17.383Z,94.9
2023-01-31T02:37:16.893Z,94.8
2023-01-31T02:38:17.400Z,94.9
2023-01-31T02:39:16.886Z,94.9
2023-01-31T02:40:17.404Z,94.8
2023-01-31T02:41:16.894Z,94.8
2023-01-31T02:42:16.789Z,94.8
2023-01-31T02:43:17.330Z,94.8
2023-01-31T02:44:16.810Z,94.9
2023-01-31T02:45:17.627Z,94.8
2023-01-31T02:46:17.502Z,94.8
2023-01-31T02:47:17.007Z,94.8
2023-01-31T02:48:16.505Z,94.8
2023-01-31T02:49:16.988Z,94.9
2023-01-31T02:50:16.479Z,94.7
2023-01-31T02:51:16.976Z,94.7
2023-01-31T02:52:16.656Z,94.7
2023-01-31T02:53:17.150Z,94.8
2023-01-31T02:54:16.655Z,94.9
2023-01-31T02:55:17.568Z,94.8
2023-01-31T02:56:17.262Z,94.8
2023-01-31T02:57:16.784Z,94.9
2023-01-31T02:58:17.284Z,94.9
2023-01-31T02:59:16.782Z,94.9
2023-01-31T03:00:17.326Z,94.8
2023-01-31T03:01:16.923Z,94.8
2023-01-31T03:02:17.194Z,94.8
2023-01-31T03:03:16.713Z,94.7
2023-01-31T03:04:17.230Z,94.8
2023-01-31T03:05:16.742Z,94.7
2023-01-31T03:06:17.239Z,94.8
2023-01-31T03:07:16.729Z,94.8
2023-01-31T03:08:17.198Z,94.9
2023-01-31T03:09:16.710Z,94.9
2023-01-31T03:10:17.265Z,94.9
2023-01-31T03:11:16.788Z,94.9
2023-01-31T03:12:17.343Z,94.9
2023-01-31T03:13:16.872Z,94.9
2023-01-31T03:14:17.841Z,94.8
2023-01-31T03:15:18.123Z,94.8
2023-01-31T03:16:16.772Z,94.8
2023-01-31T03:17:17.778Z,94.7
2023-01-31T03:18:17.585Z,94.8
2023-01-31T03:19:17.741Z,94.8
2023-01-31T03:20:17.467Z,95.0
2023-01-31T03:21:17.368Z,95.0
2023-01-31T03:22:17.275Z,95.0
2023-01-31T03:23:16.754Z,95.0
2023-01-31T03:24:17.250Z,95.1
2023-01-31T03:25:17.578Z,95.1
2023-01-31T03:26:18.202Z,95.1
2023-01-31T03:27:17.027Z,95.1
2023-01-31T03:28:16.579Z,95.2
2023-01-31T03:29:17.854Z,95.2
2023-01-31T03:30:17.637Z,95.1
2023-01-31T03:31:17.547Z,95.1
2023-01-31T03:32:17.368Z,95.2
2023-01-31T03:33:17.169Z,95.2
2023-01-31T03:34:17.070Z,95.1
2023-01-31T03:35:17.022Z,95.2
2023-01-31T03:36:16.922Z,95.3
2023-01-31T03:37:18.024Z,95.4
2023-01-31T03:38:16.710Z,95.4
2023-01-31T03:39:17.832Z,95.5
2023-01-31T03:40:17.842Z,95.6
2023-01-31T03:41:17.696Z,95.5
2023-01-31T03:42:17.502Z,95.5
2023-01-31T03:43:17.130Z,95.5
2023-01-31T03:44:17.211Z,95.5
2023-01-31T03:45:17.241Z,95.4
2023-01-31T03:46:17.171Z,95.4
2023-01-31T03:47:16.947Z,95.3
2023-01-31T03:48:17.965Z,95.3
2023-01-31T03:49:16.746Z,95.4
2023-01-31T03:50:17.677Z,95.3
2023-01-31T03:51:17.571Z,95.3
2023-01-31T03:52:16.760Z,95.3
2023-01-31T03:53:17.394Z,95.3
2023-01-31T03:54:17.216Z,95.3
2023-01-31T03:55:17.225Z,95.3
2023-01-31T03:56:17.094Z,95.3
2023-01-31T03:57:17.162Z,95.3
2023-01-31T03:58:16.985Z,95.4
2023-01-31T03:59:16.733Z,95.4
2023-01-31T04:00:17.224Z,95.5
2023-01-31T04:01:16.783Z,95.4
2023-01-31T04:02:17.064Z,95.3
2023-01-31T04:03:16.587Z,95.4
2023-01-31T04:04:17.112Z,95.5
2023-01-31T04:05:16.606Z,95.5
2023-01-31T04:06:17.115Z,95.4
2023-01-31T04:07:17.071Z,95.5
2023-01-31T04:08:16.822Z,95.4
2023-01-31T04:09:17.323Z,95.4
2023-01-31T04:10:16.857Z,95.4
2023-01-31T04:11:17.347Z,95.5
2023-01-31T04:12:17.232Z,95.5
2023-01-31T04:13:16.724Z,95.5
2023-01-31T04:14:17.229Z,95.4
2023-01-31T04:15:16.723Z,95.3
2023-01-31T04:16:17.334Z,95.3
2023-01-31T04:17:16.997Z,95.3
2023-01-31T04:18:16.491Z,95.3
2023-01-31T04:19:16.979Z,95.2
2023-01-31T04:20:16.499Z,95.2
2023-01-31T04:21:17.031Z,95.2
2023-01-31T04:22:17.231Z,95.2
2023-01-31T04:23:16.759Z,95.2
2023-01-31T04:24:17.263Z,95.2
2023-01-31T04:25:16.787Z,95.2
2023-01-31T04:26:17.371Z,95.2
2023-01-31T04:27:16.902Z,95.2
2023-01-31T04:28:17.432Z,95.2
2023-01-31T04:29:16.922Z,95.1
2023-01-31T04:30:17.441Z,95.1
2023-01-31T04:31:17.138Z,95.0
2023-01-31T04:32:16.946Z,94.9
2023-01-31T04:33:16.476Z,95.0
2023-01-31T04:34:17.020Z,95.0
2023-01-31T04:35:16.512Z,95.0
2023-01-31T04:36:17.019Z,95.0
2023-01-31T04:37:16.513Z,94.9
2023-01-31T04:38:17.028Z,94.8
2023-01-31T04:39:16.543Z,94.9
2023-01-31T04:40:17.096Z,94.7
2023-01-31T04:41:16.568Z,94.7
2023-01-31T04:42:16.815Z,94.7
2023-01-31T04:43:17.365Z,94.7
2023-01-31T04:44:16.884Z,94.7
2023-01-31T04:45:17.432Z,94.6
2023-01-31T04:46:17.015Z,94.6
2023-01-31T04:47:16.547Z,94.6
2023-01-31T04:48:17.041Z,94.5
2023-01-31T04:49:16.557Z,94.5
2023-01-31T04:50:17.078Z,94.5
2023-01-31T04:51:16.555Z,94.5
2023-01-31T04:52:17.471Z,94.5
2023-01-31T04:53:16.996Z,94.5
2023-01-31T04:54:16.485Z,94.5
2023-01-31T04:55:16.987Z,94.5
2023-01-31T04:56:16.497Z,94.5
2023-01-31T04:57:16.987Z,94.6
2023-01-31T04:58:16.459Z,94.5
2023-01-31T04:59:16.951Z,94.4
2023-01-31T05:00:17.517Z,94.5
2023-01-31T05:01:17.133Z,94.4
2023-01-31T05:02:16.658Z,94.4
2023-01-31T05:03:17.204Z,94.4
2023-01-31T05:04:16.732Z,94.4
2023-01-31T05:05:17.319Z,94.4
2023-01-31T05:06:16.832Z,94.3
2023-01-31T05:07:17.341Z,94.3
2023-01-31T05:08:16.830Z,94.4
2023-01-31T05:09:17.335Z,94.4
2023-01-31T05:10:16.838Z,94.4
2023-01-31T05:11:17.339Z,94.3
2023-01-31T05:12:16.688Z,94.4
2023-01-31T05:13:17.194Z,94.4
2023-01-31T05:14:16.675Z,94.4
2023-01-31T05:15:17.278Z,94.3
2023-01-31T05:16:16.934Z,94.3
2023-01-31T05:17:16.485Z,94.4
2023-01-31T05:18:16.971Z,94.4
2023-01-31T05:19:16.508Z,94.3
2023-01-31T05:20:17.010Z,94.2
2023-01-31T05:21:16.620Z,94.2
2023-01-31T05:22:17.465Z,94.2
2023-01-31T05:23:16.969Z,94.1
2023-01-31T05:24:16.471Z,94.1
2023-01-31T05:25:17.002Z,94.1
2023-01-31T05:26:16.549Z,94.1
2023-01-31T05:27:17.103Z,93.9
2023-01-31T05:28:16.942Z,93.9
2023-01-31T05:29:16.556Z,93.9
2023-01-31T05:30:17.285Z,93.9
2023-01-31T05:31:16.978Z,93.8
2023-01-31T05:32:17.385Z,93.8
2023-01-31T05:33:16.891Z,93.8
2023-01-31T05:34:17.497Z,93.7
2023-01-31T05:35:17.081Z,93.7
2023-01-31T05:36:16.566Z,93.7
2023-01-31T05:37:17.056Z,93.6
2023-01-31T05:38:16.543Z,93.5
2023-01-31T05:39:17.048Z,93.6
2023-01-31T05:40:16.799Z,93.5
2023-01-31T05:41:17.323Z,93.5
2023-01-31T05:42:16.538Z,93.5
2023-01-31T05:43:17.052Z,93.5
2023-01-31T05:44:16.576Z,93.4
2023-01-31T05:45:17.077Z,93.5
2023-01-31T05:46:16.577Z,93.6
2023-01-31T05:47:17.059Z,93.5
2023-01-31T05:48:16.539Z,93.5
2023-01-31T05:49:17.026Z,93.5
2023-01-31T05:50:16.523Z,93.5
2023-01-31T05:51:17.046Z,93.5
2023-01-31T05:52:17.115Z,93.5
2023-01-31T05:53:16.592Z,93.5
2023-01-31T05:54:17.092Z,93.5
2023-01-31T05:55:16.591Z,93.6
2023-01-31T05:56:17.083Z,93.6
2023-01-31T05:57:16.602Z,93.6
2023-01-31T05:58:17.132Z,93.6
2023-01-31T05:59:16.648Z,93.6
2023-01-31T06:00:17.185Z,93.6
2023-01-31T06:01:16.678Z,93.5
2023-01-31T06:02:17.578Z,93.5
2023-01-31T06:03:17.228Z,93.5
2023-01-31T06:04:16.785Z,93.6
2023-01-31T06:05:17.510Z,93.6
2023-01-31T06:06:17.082Z,93.5
2023-01-31T06:07:16.621Z,93.5
2023-01-31T06:08:17.111Z,93.4
2023-01-31T06:09:16.615Z,93.5
2023-01-31T06:10:20.158Z,93.6
2023-01-31T06:11:16.750Z,93.6
2023-01-31T06:12:17.107Z,93.6
2023-01-31T06:13:16.601Z,93.6
2023-01-31T06:14:17.129Z,93.5
2023-01-31T06:15:16.613Z,93.5
2023-01-31T06:16:17.183Z,93.6
2023-01-31T06:17:16.669Z,93.6
2023-01-31T06:18:17.208Z,93.5
2023-01-31T06:19:16.717Z,93.6
2023-01-31T06:20:17.294Z,93.6
2023-01-31T06:21:16.805Z,93.6
2023-01-31T06:22:16.520Z,93.7
2023-01-31T06:23:17.031Z,93.6
2023-01-31T06:24:16.553Z,93.6
2023-01-31T06:25:17.081Z,93.6
2023-01-31T06:26:16.735Z,93.6
2023-01-31T06:27:17.239Z,93.6
2023-01-31T06:28:16.801Z,93.6
2023-01-31T06:29:17.341Z,93.6
2023-01-31T06:30:16.850Z,93.5
2023-01-31T06:31:17.609Z,93.5
2023-01-31T06:32:17.048Z,93.6
2023-01-31T06:33:16.541Z,93.5
2023-01-31T06:34:17.043Z,93.4
2023-01-31T06:35:16.565Z,93.4
2023-01-31T06:36:19.677Z,93.4
2023-01-31T06:37:17.344Z,93.4
2023-01-31T06:38:16.855Z,93.3
2023-01-31T06:39:17.365Z,93.3
2023-01-31T06:40:16.928Z,93.2
2023-01-31T06:41:17.418Z,93.3
2023-01-31T06:42:17.020Z,93.3
2023-01-31T06:43:16.545Z,93.3
2023-01-31T06:44:17.044Z,93.2
2023-01-31T06:45:16.537Z,93.2
2023-01-31T06:46:17.161Z,93.2
2023-01-31T06:47:16.674Z,93.2
2023-01-31T06:48:17.173Z,93.2
2023-01-31T06:49:16.685Z,93.2
2023-01-31T06:50:17.204Z,93.2
2023-01-31T06:51:16.741Z,93.2
2023-01-31T06:52:16.480Z,93.2
2023-01-31T06:53:17.172Z,93.2
2023-01-31T06:54:16.826Z,93.2
2023-01-31T06:55:17.831Z,93.2
2023-01-31T06:56:17.384Z,93.2
2023-01-31T06:57:16.868Z,93.2
2023-01-31T06:58:20.834Z,93.2
2023-01-31T06:59:17.372Z,93.1
2023-01-31T07:00:16.862Z,93.1
2023-01-31T07:01:17.428Z,93.0
2023-01-31T07:02:16.894Z,93.1
2023-01-31T07:03:17.414Z,93.0
2023-01-31T07:04:16.920Z,93.1
2023-01-31T07:05:17.428Z,93.1
2023-01-31T07:06:16.902Z,93.1
2023-01-31T07:07:17.406Z,93.1
2023-01-31T07:08:16.891Z,93.1
2023-01-31T07:09:17.372Z,93.1
2023-01-31T07:10:16.860Z,93.2
2023-01-31T07:11:17.357Z,93.1
2023-01-31T07:12:17.140Z,93.2
2023-01-31T07:13:16.646Z,93.1
2023-01-31T07:14:17.267Z,93.0
2023-01-31T07:15:16.766Z,93.0
2023-01-31T07:16:17.440Z,93.0
2023-01-31T07:17:16.958Z,93.0
2023-01-31T07:18:17.463Z,93.0
2023-01-31T07:19:16.967Z,93.1
2023-01-31T07:20:17.499Z,93.0
2023-01-31T07:21:16.996Z,93.0
2023-01-31T07:22:17.448Z,92.9
2023-01-31T07:23:16.956Z,92.8
2023-01-31T07:24:17.465Z,92.9
2023-01-31T07:25:17.022Z,92.7
2023-01-31T07:26:16.655Z,92.7
2023-01-31T07:27:17.293Z,92.7
2023-01-31T07:28:16.781Z,92.6
2023-01-31T07:29:17.286Z,92.6
2023-01-31T07:30:16.780Z,92.4
2023-01-31T07:31:17.339Z,92.3
2023-01-31T07:32:16.928Z,92.2
2023-01-31T07:33:17.417Z,92.3
2023-01-31T07:34:16.921Z,92.3
2023-01-31T07:35:17.637Z,92.0
2023-01-31T07:36:17.171Z,92.1
2023-01-31T07:37:16.662Z,92.0
2023-01-31T07:38:17.135Z,92.0
2023-01-31T07:39:16.688Z,92.2
2023-01-31T07:40:17.240Z,92.3
2023-01-31T07:41:16.735Z,92.2
2023-01-31T07:42:16.625Z,91.7
2023-01-31T07:43:17.148Z,91.7
2023-01-31T07:44:16.639Z,91.8
2023-01-31T07:45:24.120Z,91.7
2023-01-31T07:46:16.743Z,91.6
2023-01-31T07:47:17.270Z,91.5
2023-01-31T07:48:16.741Z,91.5
2023-01-31T07:49:17.235Z,91.5
2023-01-31T07:50:16.721Z,91.6
2023-01-31T07:51:17.201Z,91.6
2023-01-31T07:52:16.768Z,91.3
2023-01-31T07:53:17.297Z,91.2
2023-01-31T07:54:16.795Z,91.2
2023-01-31T07:55:17.296Z,91.3
2023-01-31T07:56:16.818Z,91.1
2023-01-31T07:57:17.347Z,91.1
2023-01-31T07:58:16.823Z,91.0
2023-01-31T07:59:17.329Z,90.9
2023-01-31T08:00:16.834Z,90.8
2023-01-31T08:01:17.447Z,90.8
2023-01-31T08:02:17.232Z,90.8
2023-01-31T08:03:16.740Z,90.7
2023-01-31T08:04:22.717Z,90.8
2023-01-31T08:05:17.866Z,90.6
2023-01-31T08:06:16.550Z,90.8
2023-01-31T08:07:17.047Z,90.8
2023-01-31T08:08:16.551Z,90.2
2023-01-31T08:09:17.062Z,90.5
2023-01-31T08:10:16.543Z,90.4
2023-01-31T08:11:17.064Z,90.2
2023-01-31T08:12:16.609Z,89.8
2023-01-31T08:13:17.119Z,90.0
2023-01-31T08:14:16.636Z,90.0
2023-01-31T08:15:17.200Z,89.9
2023-01-31T08:16:16.754Z,90.1
2023-01-31T08:17:17.324Z,90.1
2023-01-31T08:18:16.816Z,89.6
2023-01-31T08:19:17.308Z,89.4
2023-01-31T08:20:16.817Z,89.5
2023-01-31T08:21:17.316Z,89.5
2023-01-31T08:22:17.243Z,89.4
2023-01-31T08:23:16.764Z,89.4
2023-01-31T08:24:17.294Z,89.4
2023-01-31T08:25:20.855Z,89.3
2023-01-31T08:26:17.567Z,89.4
2023-01-31T08:27:17.059Z,89.5
2023-01-31T08:28:16.553Z,89.3
2023-01-31T08:29:17.123Z,89.2
2023-01-31T08:30:16.661Z,88.7
2023-01-31T08:31:17.466Z,88.6
2023-01-31T08:32:16.924Z,89.0
2023-01-31T08:33:17.450Z,89.2
2023-01-31T08:34:16.958Z,88.8
2023-01-31T08:35:17.952Z,88.6
2023-01-31T08:36:16.573Z,88.5
2023-01-31T08:37:18.817Z,88.6
2023-01-31T08:38:17.370Z,88.4
2023-01-31T08:39:16.843Z,88.4
2023-01-31T08:40:17.335Z,88.3
2023-01-31T08:41:16.829Z,88.3
2023-01-31T08:42:16.524Z,88.5
2023-01-31T08:43:17.040Z,88.2
2023-01-31T08:44:16.564Z,88.3
2023-01-31T08:45:17.122Z,88.6
2023-01-31T08:46:16.742Z,88.3
2023-01-31T08:47:17.279Z,87.9
2023-01-31T08:48:16.808Z,87.8
2023-01-31T08:49:17.308Z,87.9
2023-01-31T08:50:28.230Z,88.1
2023-01-31T08:51:16.814Z,87.9
2023-01-31T08:52:16.800Z,87.8
2023-01-31T08:53:17.286Z,87.8
2023-01-31T08:54:16.757Z,87.9
2023-01-31T08:55:17.409Z,87.7
2023-01-31T08:56:16.995Z,87.6
2023-01-31T08:57:16.550Z,87.7
2023-01-31T08:58:17.062Z,87.5
2023-01-31T08:59:16.571Z,87.2
2023-01-31T09:00:17.088Z,87.4
2023-01-31T09:01:16.852Z,87.6
2023-01-31T09:02:17.434Z,87.6
2023-01-31T09:03:16.929Z,87.5
2023-01-31T09:04:17.405Z,87.2
2023-01-31T09:05:16.959Z,87.1
2023-01-31T09:06:16.485Z,87.3
2023-01-31T09:07:16.977Z,87.4
2023-01-31T09:08:16.474Z,87.3
2023-01-31T09:09:17.016Z,87.5
2023-01-31T09:10:16.531Z,87.6
2023-01-31T09:11:17.184Z,87.7
2023-01-31T09:12:16.703Z,87.4
2023-01-31T09:13:17.231Z,87.5
2023-01-31T09:14:16.874Z,87.4
2023-01-31T09:15:17.444Z,87.2
2023-01-31T09:16:16.929Z,87.4
2023-01-31T09:17:17.561Z,87.4
2023-01-31T09:18:17.106Z,87.1
2023-01-31T09:19:16.646Z,87.0
2023-01-31T09:20:17.144Z,87.2
2023-01-31T09:21:16.611Z,86.9
2023-01-31T09:22:16.599Z,87.1
2023-01-31T09:23:17.111Z,87.1
2023-01-31T09:24:16.644Z,87.1
2023-01-31T09:25:17.197Z,87.3
2023-01-31T09:26:16.886Z,87.4
2023-01-31T09:27:17.459Z,87.3
2023-01-31T09:28:17.007Z,86.9
2023-01-31T09:29:16.512Z,86.8
2023-01-31T09:30:17.011Z,86.9
2023-01-31T09:31:16.658Z,86.9
2023-01-31T09:32:16.831Z,86.9
2023-01-31T09:33:17.349Z,86.9
2023-01-31T09:34:16.874Z,86.8
2023-01-31T09:35:17.827Z,86.8
2023-01-31T09:36:17.478Z,87.0
2023-01-31T09:37:16.974Z,87.1
2023-01-31T09:38:16.471Z,87.1
2023-01-31T09:39:16.981Z,87.2
2023-01-31T09:40:16.494Z,87.2
2023-01-31T09:41:17.071Z,87.1
2023-01-31T09:42:19.256Z,87.0
2023-01-31T09:43:16.831Z,87.1
2023-01-31T09:44:17.348Z,87.2
2023-01-31T09:45:16.844Z,87.0
2023-01-31T09:46:17.331Z,86.9
2023-01-31T09:47:16.862Z,86.7
2023-01-31T09:48:17.414Z,86.9
2023-01-31T09:49:16.945Z,86.3
2023-01-31T09:50:17.495Z,86.3
2023-01-31T09:51:16.997Z,86.2
2023-01-31T09:52:16.671Z,86.0
2023-01-31T09:53:17.223Z,86.1
2023-01-31T09:54:16.737Z,86.3
2023-01-31T09:55:17.301Z,86.0
2023-01-31T09:56:16.766Z,85.8
2023-01-31T09:57:17.260Z,85.7
2023-01-31T09:58:16.781Z,85.6
2023-01-31T09:59:17.303Z,85.6
2023-01-31T10:00:16.794Z,85.8
2023-01-31T10:01:17.412Z,86.0
2023-01-31T10:02:16.739Z,85.7
2023-01-31T10:03:17.244Z,85.7
2023-01-31T10:04:16.824Z,85.9
2023-01-31T10:05:17.461Z,85.6
2023-01-31T10:06:16.983Z,85.5
2023-01-31T10:07:16.565Z,85.5
2023-01-31T10:08:17.106Z,85.3
2023-01-31T10:09:16.624Z,85.2
2023-01-31T10:10:17.119Z,85.4
2023-01-31T10:11:16.619Z,85.5
2023-01-31T10:12:16.667Z,85.5
2023-01-31T10:13:17.166Z,85.4
2023-01-31T10:14:16.671Z,85.4
2023-01-31T10:15:17.312Z,85.6
2023-01-31T10:16:16.831Z,85.6
2023-01-31T10:17:17.432Z,85.7
2023-01-31T10:18:16.928Z,85.7
2023-01-31T10:19:17.449Z,85.5
2023-01-31T10:20:16.947Z,85.7
2023-01-31T10:21:17.458Z,85.7
2023-01-31T10:22:16.927Z,85.7
2023-01-31T10:23:17.439Z,85.9
2023-01-31T10:24:17.062Z,85.6
2023-01-31T10:25:16.622Z,85.6
2023-01-31T10:26:17.261Z,85.1
2023-01-31T10:27:16.772Z,85.0
2023-01-31T10:28:17.285Z,84.8
2023-01-31T10:29:16.771Z,84.8
2023-01-31T10:30:17.263Z,84.1
2023-01-31T10:31:16.943Z,84.2
2023-01-31T10:32:17.436Z,84.2
2023-01-31T10:33:16.966Z,84.2
2023-01-31T10:34:17.526Z,84.4
2023-01-31T10:35:17.038Z,84.0
2023-01-31T10:36:16.550Z,84.1
2023-01-31T10:37:17.036Z,84.2
2023-01-31T10:38:16.536Z,84.1
2023-01-31T10:39:17.028Z,84.1
2023-01-31T10:40:16.532Z,84.0
2023-01-31T10:41:17.003Z,84.1
2023-01-31T10:42:16.534Z,83.4
2023-01-31T10:43:17.082Z,83.8
2023-01-31T10:44:16.590Z,83.9
2023-01-31T10:45:17.211Z,83.8
2023-01-31T10:46:16.863Z,83.2
2023-01-31T10:47:17.426Z,83.0
2023-01-31T10:48:16.911Z,83.0
2023-01-31T10:49:17.413Z,82.8
2023-01-31T10:50:16.885Z,83.1
2023-01-31T10:51:17.367Z,82.8
2023-01-31T10:52:16.964Z,82.1
2023-01-31T10:53:17.478Z,82.2
2023-01-31T10:54:16.944Z,82.4
2023-01-31T10:55:17.452Z,82.2
2023-01-31T10:56:16.944Z,82.0
2023-01-31T10:57:17.458Z,81.8
2023-01-31T10:58:16.956Z,81.8
2023-01-31T10:59:17.461Z,81.6
2023-01-31T11:00:16.987Z,81.8
2023-01-31T11:01:16.561Z,82.0
2023-01-31T11:02:17.474Z,82.2
2023-01-31T11:03:16.999Z,82.7
2023-01-31T11:04:16.470Z,82.8
2023-01-31T11:05:17.001Z,83.1
2023-01-31T11:06:16.482Z,83.3
2023-01-31T11:07:16.998Z,83.2
2023-01-31T11:08:16.480Z,83.3
2023-01-31T11:09:16.989Z,83.5
2023-01-31T11:10:16.545Z,83.4
2023-01-31T11:11:17.091Z,83.3
2023-01-31T11:12:17.310Z,83.4
2023-01-31T11:13:16.820Z,83.4
2023-01-31T11:14:17.304Z,83.6
2023-01-31T11:15:16.832Z,83.6
2023-01-31T11:16:17.422Z,83.6
2023-01-31T11:17:16.975Z,83.2
2023-01-31T11:18:16.464Z,83.2
2023-01-31T11:19:16.948Z,83.4
2023-01-31T11:20:17.546Z,83.2
2023-01-31T11:21:17.047Z,82.9
2023-01-31T11:22:16.933Z,82.7
2023-01-31T11:23:17.421Z,82.5
2023-01-31T11:24:16.927Z,82.4
2023-01-31T11:25:17.447Z,82.5
2023-01-31T11:26:17.006Z,82.1
2023-01-31T11:27:16.510Z,82.1
2023-01-31T11:28:17.030Z,81.9
2023-01-31T11:29:16.606Z,81.5
2023-01-31T11:30:17.140Z,81.2
2023-01-31T11:31:16.775Z,80.9
2023-01-31T11:32:17.210Z,80.9
2023-01-31T11:33:16.700Z,80.5
2023-01-31T11:34:17.216Z,80.7
2023-01-31T11:35:16.826Z,80.4
2023-01-31T11:36:17.329Z,79.9
2023-01-31T11:37:16.866Z,79.8
2023-01-31T11:38:17.393Z,80.0
2023-01-31T11:39:16.921Z,80.4
2023-01-31T11:40:17.474Z,80.9
2023-01-31T11:41:17.057Z,81.0
2023-01-31T11:42:16.863Z,81.1
2023-01-31T11:43:17.354Z,81.4
2023-01-31T11:44:16.866Z,81.3
2023-01-31T11:45:17.387Z,81.3
2023-01-31T11:46:17.030Z,81.1
2023-01-31T11:47:16.556Z,81.1
2023-01-31T11:48:17.051Z,81.4
2023-01-31T11:49:16.531Z,81.5
2023-01-31T11:50:17.042Z,81.5
2023-01-31T11:51:16.543Z,81.4
2023-01-31T11:52:17.018Z,81.7
2023-01-31T11:53:16.552Z,81.7
2023-01-31T11:54:17.035Z,81.7
2023-01-31T11:55:16.552Z,82.0
2023-01-31T11:56:17.021Z,82.4
2023-01-31T11:57:16.523Z,82.2
2023-01-31T11:58:17.026Z,82.5
2023-01-31T11:59:16.528Z,82.2
2023-01-31T12:00:17.065Z,82.1
2023-01-31T12:01:16.561Z,82.4
2023-01-31T12:02:17.547Z,82.3
2023-01-31T12:03:17.297Z,82.5
2023-01-31T12:04:16.933Z,82.6
2023-01-31T12:05:16.503Z,83.0
2023-01-31T12:06:17.005Z,83.2
2023-01-31T12:07:16.523Z,83.3
2023-01-31T12:08:17.004Z,83.4
2023-01-31T12:09:16.480Z,83.8
2023-01-31T12:10:16.995Z,84.1
2023-01-31T12:11:16.475Z,84.1
2023-01-31T12:12:16.989Z,84.2
2023-01-31T12:13:19.651Z,84.5
2023-01-31T12:14:17.187Z,84.6
2023-01-31T12:15:16.724Z,84.7
2023-01-31T12:16:17.334Z,85.0
2023-01-31T12:17:16.897Z,85.1
2023-01-31T12:18:17.401Z,85.2
2023-01-31T12:19:16.972Z,85.4
2023-01-31T12:20:29.077Z,85.3
2023-01-31T12:21:16.700Z,85.2
2023-01-31T12:22:17.118Z,85.5
2023-01-31T12:23:16.617Z,85.6
2023-01-31T12:24:17.125Z,85.7
2023-01-31T12:25:16.638Z,85.7
2023-01-31T12:26:17.197Z,85.9
2023-01-31T12:27:16.720Z,86.0
2023-01-31T12:28:17.224Z,86.0
2023-01-31T12:29:16.733Z,86.0
2023-01-31T12:30:17.252Z,86.3
2023-01-31T12:31:17.117Z,86.2
2023-01-31T12:32:16.534Z,86.4
2023-01-31T12:33:17.022Z,86.2
2023-01-31T12:34:16.489Z,86.2
2023-01-31T12:35:17.103Z,86.2
2023-01-31T12:36:16.606Z,86.5
2023-01-31T12:37:17.108Z,86.4
2023-01-31T12:38:16.608Z,86.3
2023-01-31T12:39:17.106Z,86.3
2023-01-31T12:40:26.215Z,86.4
2023-01-31T12:41:17.424Z,86.5
2023-01-31T12:42:16.879Z,86.6
2023-01-31T12:43:17.395Z,86.5
2023-01-31T12:44:16.941Z,86.5
2023-01-31T12:45:17.478Z,86.4
2023-01-31T12:46:17.207Z,86.4
2023-01-31T12:47:16.709Z,86.4
2023-01-31T12:48:17.200Z,86.4
2023-01-31T12:49:16.727Z,86.3
2023-01-31T12:50:17.265Z,86.3
2023-01-31T12:51:16.781Z,86.4
2023-01-31T12:52:16.494Z,86.5
2023-01-31T12:53:17.002Z,86.3
2023-01-31T12:54:16.508Z,86.3
2023-01-31T12:55:17.024Z,86.5
2023-01-31T12:56:16.524Z,86.5
2023-01-31T12:57:17.057Z,86.6
2023-01-31T12:58:16.555Z,86.5
2023-01-31T12:59:17.280Z,86.5
2023-01-31T13:00:16.794Z,86.6
2023-01-31T13:01:17.355Z,86.6
2023-01-31T13:02:16.974Z,86.5
2023-01-31T13:03:16.475Z,86.5
2023-01-31T13:04:16.987Z,86.5
2023-01-31T13:05:16.494Z,86.7
2023-01-31T13:06:16.992Z,86.6
2023-01-31T13:07:16.515Z,86.6
2023-01-31T13:08:16.998Z,86.6
2023-01-31T13:09:16.499Z,86.7
2023-01-31T13:10:16.999Z,86.7
2023-01-31T13:11:16.526Z,86.7
2023-01-31T13:12:17.383Z,86.8
2023-01-31T13:13:16.872Z,87.0
2023-01-31T13:14:17.377Z,87.0
2023-01-31T13:15:16.909Z,86.8
2023-01-31T13:16:17.523Z,86.8
2023-01-31T13:17:17.052Z,87.0
2023-01-31T13:18:16.557Z,87.0